Time;durP1;ratioP1;P1;durP2;ratioP2;P2;SDS_P1;SDS_P2;PMS_P1;PMS_P2;Temp;Humidity;BMP_temperature;BMP_pressure;BME280_temperature;BME280_humidity;BME280_pressure;Samples;Min_cycle;Max_cycle;Signal;HPM_P1;HPM_P2
2024/04/05 00:00:18;;;;;;;6.65;1.08;;;;;;;;;;5081854;28;20438;-58
2024/04/05 00:02:45;;;;;;;5.47;0.90;;;;;;;;;;5085958;28;20198;-57
2024/04/05 00:05:11;;;;;;;5.80;1.05;;;;;;;;;;5092805;28;20028;-57
2024/04/05 00:07:38;;;;;;;6.68;1.20;;;;;;;;;;5096941;28;20031;-57
2024/04/05 00:10:06;;;;;;;2.95;0.88;;;;;;;;;;5092545;28;20387;-58
2024/04/05 00:12:31;;;;;;;6.10;1.15;;;;;;;;;;5092239;28;20027;-58
2024/04/05 00:14:57;;;;;;;4.90;1.10;;;;;;;;;;5089120;28;20431;-58
2024/04/05 00:17:23;;;;;;;8.27;1.13;;;;;;;;;;5092204;28;20157;-57
2024/04/05 00:19:50;;;;;;;1.98;0.70;;;;;;;;;;5088416;28;20545;-60
2024/04/05 00:22:16;;;;;;;9.82;1.42;;;;;;;;;;5092249;28;20020;-59
2024/04/05 00:24:42;;;;;;;3.60;1.50;;;;;;;;;;5086933;28;20047;-60
2024/04/05 00:27:07;;;;;;;8.30;1.10;;;;;;;;;;5092335;28;20028;-60
2024/04/05 00:29:36;;;;;;;3.13;0.75;;;;;;;;;;5089938;28;20031;-59
2024/04/05 00:32:02;;;;;;;4.20;1.38;;;;;;;;;;5091463;28;20032;-59
2024/04/05 00:34:28;;;;;;;5.85;1.13;;;;;;;;;;5091899;28;20039;-60
2024/04/05 00:36:54;;;;;;;3.17;1.00;;;;;;;;;;5088873;28;20028;-60
2024/04/05 00:39:20;;;;;;;4.85;0.75;;;;;;;;;;5083879;28;20024;-59
2024/04/05 00:41:46;;;;;;;4.95;0.85;;;;;;;;;;5081823;28;20024;-60
2024/04/05 00:44:13;;;;;;;2.33;0.93;;;;;;;;;;5092008;28;20153;-58
2024/04/05 00:46:39;;;;;;;6.93;0.93;;;;;;;;;;5079851;28;20038;-59
2024/04/05 00:49:05;;;;;;;4.28;1.42;;;;;;;;;;5082356;28;20032;-60
2024/04/05 00:51:31;;;;;;;6.72;1.23;;;;;;;;;;5090119;28;20035;-60
2024/04/05 00:53:57;;;;;;;2.53;1.08;;;;;;;;;;5090896;28;20459;-59
2024/04/05 00:56:24;;;;;;;6.20;1.05;;;;;;;;;;5092036;28;20103;-60
2024/04/05 00:58:51;;;;;;;7.38;1.27;;;;;;;;;;5083277;28;20089;-60
2024/04/05 01:01:17;;;;;;;5.93;1.55;;;;;;;;;;5082330;28;20548;-59
2024/04/05 01:03:43;;;;;;;5.03;1.23;;;;;;;;;;5084518;28;20029;-60
2024/04/05 01:06:09;;;;;;;4.80;1.42;;;;;;;;;;5091877;28;20024;-60
2024/04/05 01:08:35;;;;;;;5.47;1.40;;;;;;;;;;5085610;28;20032;-59
2024/04/05 01:11:01;;;;;;;8.43;1.20;;;;;;;;;;5091510;28;20028;-59
2024/04/05 01:13:27;;;;;;;5.35;1.30;;;;;;;;;;5083812;28;20046;-60
2024/04/05 01:15:53;;;;;;;6.30;1.45;;;;;;;;;;5082810;28;20156;-60
2024/04/05 01:18:19;;;;;;;7.55;1.17;;;;;;;;;;5091830;28;20032;-59
2024/04/05 01:20:46;;;;;;;8.00;1.38;;;;;;;;;;5087625;28;20039;-59
2024/04/05 01:23:13;;;;;;;10.32;1.13;;;;;;;;;;5091307;28;20028;-60
2024/04/05 01:25:39;;;;;;;8.45;1.90;;;;;;;;;;5090846;28;20084;-60
2024/04/05 01:28:11;;;;;;;8.65;1.70;;;;;;;;;;5091672;28;20432;-60
2024/04/05 01:30:37;;;;;;;5.00;1.35;;;;;;;;;;5081204;28;20032;-60
2024/04/05 01:33:03;;;;;;;5.45;1.25;;;;;;;;;;5091387;28;20031;-61
2024/04/05 01:35:30;;;;;;;5.35;2.05;;;;;;;;;;5091728;28;20063;-58
2024/04/05 01:37:56;;;;;;;4.97;0.85;;;;;;;;;;5089869;28;20032;-60
2024/04/05 01:40:23;;;;;;;6.97;1.20;;;;;;;;;;5083375;28;20111;-60
2024/04/05 01:42:49;;;;;;;10.05;1.27;;;;;;;;;;5090397;28;20468;-59
2024/04/05 01:45:15;;;;;;;6.07;1.08;;;;;;;;;;5091753;28;20085;-61
2024/04/05 01:47:41;;;;;;;3.00;0.73;;;;;;;;;;5086909;28;20040;-61
2024/04/05 01:50:07;;;;;;;3.67;0.98;;;;;;;;;;5085722;28;20130;-59
2024/04/05 01:52:33;;;;;;;10.13;1.80;;;;;;;;;;5087320;28;20028;-62
2024/04/05 01:54:59;;;;;;;10.10;1.20;;;;;;;;;;5089020;28;20054;-59
2024/04/05 01:57:25;;;;;;;7.50;0.93;;;;;;;;;;5088893;28;20020;-60
2024/04/05 01:59:53;;;;;;;7.20;1.23;;;;;;;;;;5086840;28;20468;-59
2024/04/05 02:02:19;;;;;;;13.70;1.40;;;;;;;;;;5085769;28;20024;-59
2024/04/05 02:04:45;;;;;;;10.68;1.42;;;;;;;;;;5077210;28;20037;-60
2024/04/05 02:07:11;;;;;;;6.93;1.17;;;;;;;;;;5094773;28;20672;-61
2024/04/05 02:09:38;;;;;;;6.53;1.35;;;;;;;;;;5102100;28;20035;-60
2024/04/05 02:12:04;;;;;;;9.35;1.20;;;;;;;;;;5090304;28;20377;-60
2024/04/05 02:14:30;;;;;;;4.07;0.75;;;;;;;;;;5092285;28;20020;-61
2024/04/05 02:16:56;;;;;;;6.88;1.40;;;;;;;;;;5093079;28;20726;-61
2024/04/05 02:19:23;;;;;;;10.23;1.45;;;;;;;;;;5094540;28;20028;-60
2024/04/05 02:21:49;;;;;;;5.28;0.90;;;;;;;;;;5087357;28;20091;-61
2024/04/05 02:24:15;;;;;;;5.20;1.35;;;;;;;;;;5094159;28;20056;-62
2024/04/05 02:26:41;;;;;;;5.07;1.38;;;;;;;;;;5094696;28;20111;-61
2024/04/05 02:29:07;;;;;;;5.20;0.90;;;;;;;;;;5094691;28;20039;-60
2024/04/05 02:31:34;;;;;;;4.75;0.90;;;;;;;;;;5089403;28;20079;-60
2024/04/05 02:34:02;;;;;;;4.35;1.10;;;;;;;;;;5092193;28;20055;-61
2024/04/05 02:36:28;;;;;;;4.57;0.90;;;;;;;;;;5094277;28;20020;-60
2024/04/05 02:38:54;;;;;;;5.15;1.13;;;;;;;;;;5091370;28;20032;-57
2024/04/05 02:41:20;;;;;;;7.60;1.08;;;;;;;;;;5092277;28;20028;-57
2024/04/05 02:43:46;;;;;;;3.58;1.00;;;;;;;;;;5090503;28;20035;-58
2024/04/05 02:46:12;;;;;;;6.03;1.13;;;;;;;;;;5082748;28;20028;-58
2024/04/05 02:48:38;;;;;;;10.27;1.50;;;;;;;;;;5084152;28;20046;-57
2024/04/05 02:51:04;;;;;;;8.23;1.92;;;;;;;;;;5094356;28;20036;-58
2024/04/05 02:53:30;;;;;;;4.40;0.80;;;;;;;;;;5087670;28;20062;-58
2024/04/05 02:55:58;;;;;;;6.43;1.10;;;;;;;;;;5093653;28;20103;-58
2024/04/05 02:58:24;;;;;;;7.38;1.30;;;;;;;;;;5092024;28;20602;-58
2024/04/05 03:00:54;;;;;;;5.18;1.10;;;;;;;;;;5090202;28;20032;-58
2024/04/05 03:03:20;;;;;;;5.57;1.15;;;;;;;;;;5089835;28;20059;-58
2024/04/05 03:05:46;;;;;;;11.48;1.92;;;;;;;;;;5091921;28;20058;-57
2024/04/05 03:08:12;;;;;;;12.63;1.80;;;;;;;;;;5085648;28;20074;-57
2024/04/05 03:10:38;;;;;;;7.13;1.40;;;;;;;;;;5093379;28;20035;-57
2024/04/05 03:13:04;;;;;;;3.25;0.95;;;;;;;;;;5093597;28;20023;-57
2024/04/05 03:15:30;;;;;;;13.38;1.60;;;;;;;;;;5093840;28;20524;-58
2024/04/05 03:17:56;;;;;;;8.32;1.67;;;;;;;;;;5098005;28;20043;-57
2024/04/05 03:20:22;;;;;;;6.55;1.80;;;;;;;;;;5093479;28;20032;-57
2024/04/05 03:22:48;;;;;;;8.05;1.70;;;;;;;;;;5092156;28;20435;-57
2024/04/05 03:25:13;;;;;;;4.80;1.17;;;;;;;;;;5093354;28;20040;-58
2024/04/05 03:27:39;;;;;;;8.43;1.42;;;;;;;;;;5085685;28;20064;-58
2024/04/05 03:30:06;;;;;;;6.00;1.25;;;;;;;;;;5088840;28;20031;-56
2024/04/05 03:32:32;;;;;;;7.90;1.48;;;;;;;;;;5091370;28;20020;-57
2024/04/05 03:34:58;;;;;;;4.32;1.60;;;;;;;;;;5092507;28;20372;-57
2024/04/05 03:37:24;;;;;;;5.32;1.17;;;;;;;;;;5091411;28;20085;-57
2024/04/05 03:39:53;;;;;;;7.72;1.38;;;;;;;;;;5093375;28;20021;-57
2024/04/05 03:42:20;;;;;;;6.50;1.90;;;;;;;;;;5093004;28;20035;-56
2024/04/05 03:44:46;;;;;;;8.55;1.48;;;;;;;;;;5091720;28;20016;-58
2024/04/05 03:47:12;;;;;;;6.15;1.52;;;;;;;;;;5091625;28;20040;-57
2024/04/05 03:49:38;;;;;;;6.43;1.25;;;;;;;;;;5074910;28;20551;-58
2024/04/05 03:52:04;;;;;;;7.40;1.92;;;;;;;;;;5091125;28;20077;-58
2024/04/05 03:54:30;;;;;;;4.25;1.08;;;;;;;;;;5091609;28;20110;-57
2024/04/05 03:56:56;;;;;;;5.50;1.30;;;;;;;;;;5091688;28;20032;-57
2024/04/05 03:59:22;;;;;;;8.57;1.40;;;;;;;;;;5089461;28;20048;-56
2024/04/05 04:01:51;;;;;;;5.38;1.30;;;;;;;;;;5092744;28;20149;-56
2024/04/05 04:04:17;;;;;;;7.28;1.50;;;;;;;;;;5082914;28;20043;-57
2024/04/05 04:06:44;;;;;;;4.68;1.05;;;;;;;;;;5091300;28;20494;-57
2024/04/05 04:09:11;;;;;;;8.25;1.30;;;;;;;;;;5091764;28;20028;-57
2024/04/05 04:11:37;;;;;;;3.00;1.20;;;;;;;;;;5091119;28;20023;-57
2024/04/05 04:14:03;;;;;;;8.32;1.70;;;;;;;;;;5091623;28;20028;-58
2024/04/05 04:16:29;;;;;;;7.85;1.42;;;;;;;;;;5092208;28;20105;-57
2024/04/05 04:18:55;;;;;;;5.85;1.38;;;;;;;;;;5095434;28;20048;-57
2024/04/05 04:21:25;;;;;;;4.32;1.27;;;;;;;;;;5091526;28;20032;-57
2024/04/05 04:23:51;;;;;;;10.70;1.60;;;;;;;;;;5091150;28;20051;-58
2024/04/05 04:26:17;;;;;;;5.40;1.45;;;;;;;;;;5085812;28;20488;-57
2024/04/05 04:28:43;;;;;;;5.72;1.42;;;;;;;;;;5090022;28;20027;-59
2024/04/05 04:31:23;;;;;;;11.10;1.67;;;;;;;;;;5086151;28;20035;-57
2024/04/05 04:33:50;;;;;;;4.78;1.30;;;;;;;;;;5089857;28;20020;-58
2024/04/05 04:36:18;;;;;;;3.75;1.20;;;;;;;;;;5085974;28;20024;-57
2024/04/05 04:38:44;;;;;;;5.70;1.52;;;;;;;;;;5087323;28;20047;-56
2024/04/05 04:41:12;;;;;;;7.65;1.50;;;;;;;;;;5090068;28;20064;-58
2024/04/05 04:43:39;;;;;;;7.43;1.55;;;;;;;;;;5090894;28;20036;-57
2024/04/05 04:46:05;;;;;;;8.68;1.50;;;;;;;;;;5090874;28;20070;-57
2024/04/05 04:48:31;;;;;;;4.53;1.50;;;;;;;;;;5091214;28;20032;-59
2024/04/05 04:50:57;;;;;;;4.30;1.08;;;;;;;;;;5088408;28;20033;-57
2024/04/05 04:53:23;;;;;;;6.20;1.38;;;;;;;;;;5083013;28;20043;-57
2024/04/05 04:55:49;;;;;;;6.00;1.42;;;;;;;;;;5087981;28;20050;-57
2024/04/05 04:58:22;;;;;;;6.07;1.30;;;;;;;;;;5091521;28;20073;-60
2024/04/05 05:00:48;;;;;;;4.70;1.40;;;;;;;;;;5088720;28;20810;-59
2024/04/05 05:03:14;;;;;;;5.70;1.23;;;;;;;;;;5088486;28;20039;-60
2024/04/05 05:05:40;;;;;;;7.05;1.38;;;;;;;;;;5078463;28;20029;-59
2024/04/05 05:08:08;;;;;;;4.68;1.50;;;;;;;;;;5085092;28;20395;-59
2024/04/05 05:10:38;;;;;;;9.30;1.35;;;;;;;;;;5091224;28;20020;-59
2024/04/05 05:13:04;;;;;;;5.43;1.42;;;;;;;;;;5080665;28;20024;-60
2024/04/05 05:15:30;;;;;;;6.47;0.90;;;;;;;;;;5090889;28;20021;-59
2024/04/05 05:17:56;;;;;;;8.98;1.33;;;;;;;;;;5084951;28;20076;-60
2024/04/05 05:20:26;;;;;;;6.53;1.40;;;;;;;;;;5083657;28;20032;-60
2024/04/05 05:22:52;;;;;;;3.97;1.60;;;;;;;;;;5089046;28;20032;-60
2024/04/05 05:25:18;;;;;;;10.65;1.58;;;;;;;;;;5088486;28;20047;-60
2024/04/05 05:27:44;;;;;;;5.70;1.63;;;;;;;;;;5088782;28;20032;-58
2024/04/05 05:30:11;;;;;;;5.88;1.30;;;;;;;;;;5088851;28;20032;-59
2024/04/05 05:32:37;;;;;;;4.80;1.30;;;;;;;;;;5087797;28;20026;-60
2024/04/05 05:35:03;;;;;;;5.32;1.45;;;;;;;;;;5087653;28;20107;-57
2024/04/05 05:37:30;;;;;;;6.10;1.55;;;;;;;;;;5094019;28;20115;-59
2024/04/05 05:39:56;;;;;;;8.90;1.30;;;;;;;;;;5094564;28;20024;-59
2024/04/05 05:42:22;;;;;;;4.97;1.63;;;;;;;;;;5097638;28;20012;-59
2024/04/05 05:44:48;;;;;;;11.43;1.45;;;;;;;;;;5094395;28;20035;-60
2024/04/05 05:47:15;;;;;;;9.10;1.83;;;;;;;;;;5087561;28;20030;-59
2024/04/05 05:49:41;;;;;;;3.97;1.00;;;;;;;;;;5091358;28;20036;-61
2024/04/05 05:52:08;;;;;;;4.10;1.17;;;;;;;;;;5092308;28;20533;-59
2024/04/05 05:54:35;;;;;;;7.05;1.65;;;;;;;;;;5093251;28;20023;-59
2024/04/05 05:57:02;;;;;;;9.75;1.45;;;;;;;;;;5090650;28;20028;-60
2024/04/05 05:59:28;;;;;;;6.50;1.33;;;;;;;;;;5094197;28;20125;-59
2024/04/05 06:01:54;;;;;;;9.65;1.75;;;;;;;;;;5086041;28;20498;-59
2024/04/05 06:04:20;;;;;;;8.85;1.40;;;;;;;;;;5094136;28;20031;-59
2024/04/05 06:06:46;;;;;;;6.85;1.63;;;;;;;;;;5092213;28;20044;-59
2024/04/05 06:09:14;;;;;;;3.33;1.40;;;;;;;;;;5091523;28;20039;-56
2024/04/05 06:11:40;;;;;;;8.73;1.48;;;;;;;;;;5085592;28;20020;-57
2024/04/05 06:14:06;;;;;;;11.52;1.90;;;;;;;;;;5091732;28;20035;-56
2024/04/05 06:16:32;;;;;;;6.80;1.58;;;;;;;;;;5089735;28;20134;-56
2024/04/05 06:18:58;;;;;;;9.32;1.60;;;;;;;;;;5093548;28;20458;-56
2024/04/05 06:21:24;;;;;;;7.88;1.58;;;;;;;;;;5085680;28;20031;-56
2024/04/05 06:23:50;;;;;;;9.27;1.70;;;;;;;;;;5093639;28;20040;-56
2024/04/05 06:26:16;;;;;;;5.85;1.38;;;;;;;;;;5093612;28;20412;-56
2024/04/05 06:28:42;;;;;;;6.15;1.27;;;;;;;;;;5089660;28;20077;-58
2024/04/05 06:31:08;;;;;;;7.72;1.20;;;;;;;;;;5086637;28;20476;-57
2024/04/05 06:33:34;;;;;;;10.85;1.70;;;;;;;;;;5092589;28;20051;-57
2024/04/05 06:36:01;;;;;;;8.75;1.25;;;;;;;;;;5092271;28;20024;-57
2024/04/05 06:38:27;;;;;;;9.38;1.80;;;;;;;;;;5086927;28;20028;-58
2024/04/05 06:41:00;;;;;;;8.23;1.60;;;;;;;;;;5090628;28;20084;-58
2024/04/05 06:43:29;;;;;;;3.33;1.20;;;;;;;;;;5095431;28;20549;-57
2024/04/05 06:45:56;;;;;;;14.63;1.48;;;;;;;;;;5107372;28;20298;-56
2024/04/05 06:48:22;;;;;;;6.72;1.20;;;;;;;;;;5094263;28;20040;-58
2024/04/05 06:50:48;;;;;;;11.02;1.67;;;;;;;;;;5086254;28;20021;-57
2024/04/05 06:53:15;;;;;;;8.98;1.80;;;;;;;;;;5086590;28;20028;-57
2024/04/05 06:55:47;;;;;;;7.75;2.20;;;;;;;;;;5091858;28;20107;-56
2024/04/05 06:58:13;;;;;;;10.43;1.50;;;;;;;;;;5079875;28;20029;-57
2024/04/05 07:00:40;;;;;;;6.43;1.63;;;;;;;;;;5083172;28;20043;-57
2024/04/05 07:03:06;;;;;;;5.47;1.50;;;;;;;;;;5085949;28;20748;-56
2024/04/05 07:05:32;;;;;;;6.97;1.48;;;;;;;;;;5090227;28;20508;-57
2024/04/05 07:07:59;;;;;;;11.75;1.85;;;;;;;;;;5087372;28;20040;-57
2024/04/05 07:10:25;;;;;;;11.07;1.42;;;;;;;;;;5092635;28;20103;-56
2024/04/05 07:12:54;;;;;;;7.97;1.73;;;;;;;;;;5092263;28;20054;-57
2024/04/05 07:15:20;;;;;;;6.88;1.17;;;;;;;;;;5092204;28;20617;-59
2024/04/05 07:17:52;;;;;;;6.72;1.40;;;;;;;;;;5092926;28;20147;-61
2024/04/05 07:20:24;;;;;;;8.77;1.90;;;;;;;;;;5091180;28;20101;-60
2024/04/05 07:22:52;;;;;;;10.40;2.17;;;;;;;;;;5090043;28;20085;-59
2024/04/05 07:25:18;;;;;;;9.18;1.77;;;;;;;;;;5083281;28;20044;-60
2024/04/05 07:27:45;;;;;;;5.85;1.42;;;;;;;;;;5090292;28;20438;-60
2024/04/05 07:30:11;;;;;;;6.65;1.15;;;;;;;;;;5087144;28;20044;-60
2024/04/05 07:32:37;;;;;;;12.10;1.98;;;;;;;;;;5080016;28;20051;-60
2024/04/05 07:35:03;;;;;;;6.55;1.52;;;;;;;;;;5088423;28;20035;-60
2024/04/05 07:37:29;;;;;;;11.45;1.75;;;;;;;;;;5086619;28;20142;-60
2024/04/05 07:39:55;;;;;;;16.63;2.70;;;;;;;;;;5091903;28;20024;-59
2024/04/05 07:42:22;;;;;;;8.88;1.55;;;;;;;;;;5090834;28;20039;-60
2024/04/05 07:44:47;;;;;;;7.18;1.23;;;;;;;;;;5084675;28;20036;-61
2024/04/05 07:47:14;;;;;;;11.77;1.90;;;;;;;;;;5079161;28;20692;-62
2024/04/05 07:49:40;;;;;;;8.52;1.95;;;;;;;;;;5089689;28;20553;-60
2024/04/05 07:52:06;;;;;;;6.72;1.40;;;;;;;;;;5079222;28;20045;-60
2024/04/05 07:54:32;;;;;;;4.93;1.33;;;;;;;;;;5090252;28;20024;-60
2024/04/05 07:56:58;;;;;;;6.38;1.35;;;;;;;;;;5089833;28;20035;-60
2024/04/05 07:59:24;;;;;;;8.32;2.03;;;;;;;;;;5090052;28;20031;-60
2024/04/05 08:01:50;;;;;;;7.82;1.73;;;;;;;;;;5088464;28;20032;-60
2024/04/05 08:04:16;;;;;;;8.57;1.60;;;;;;;;;;5087768;28;20082;-60
2024/04/05 08:06:42;;;;;;;12.48;2.00;;;;;;;;;;5078198;28;20020;-60
2024/04/05 08:09:08;;;;;;;6.97;1.73;;;;;;;;;;5086549;28;20077;-60
2024/04/05 08:11:34;;;;;;;9.25;2.05;;;;;;;;;;5085708;28;20061;-60
2024/04/05 08:14:00;;;;;;;18.73;1.88;;;;;;;;;;5091416;28;20495;-60
2024/04/05 08:16:27;;;;;;;9.07;1.55;;;;;;;;;;5089627;28;20024;-60
2024/04/05 08:18:54;;;;;;;11.00;1.90;;;;;;;;;;5084531;28;20142;-60
2024/04/05 08:21:21;;;;;;;11.32;1.83;;;;;;;;;;5083002;28;20054;-60
2024/04/05 08:23:48;;;;;;;11.43;1.55;;;;;;;;;;5085010;28;20170;-60
2024/04/05 08:26:14;;;;;;;11.15;1.85;;;;;;;;;;5089825;28;20032;-60
2024/04/05 08:28:39;;;;;;;11.35;1.90;;;;;;;;;;5085005;28;20069;-58
2024/04/05 08:31:05;;;;;;;6.80;1.50;;;;;;;;;;5088387;28;20025;-57
2024/04/05 08:33:31;;;;;;;9.13;1.30;;;;;;;;;;5078832;28;20318;-57
2024/04/05 08:35:58;;;;;;;9.30;1.80;;;;;;;;;;5089114;28;20042;-58
2024/04/05 08:38:24;;;;;;;6.13;1.55;;;;;;;;;;5087470;28;20073;-59
2024/04/05 08:40:50;;;;;;;13.95;1.67;;;;;;;;;;5087225;28;20034;-58
2024/04/05 08:43:17;;;;;;;8.82;1.73;;;;;;;;;;5089757;28;20434;-58
2024/04/05 08:45:43;;;;;;;5.72;1.63;;;;;;;;;;5089982;28;20028;-58
2024/04/05 08:48:09;;;;;;;6.78;1.73;;;;;;;;;;5090894;28;20476;-58
2024/04/05 08:50:36;;;;;;;8.40;1.40;;;;;;;;;;5085298;28;20040;-59
2024/04/05 08:53:02;;;;;;;7.55;1.90;;;;;;;;;;5073861;28;20579;-58
2024/04/05 08:55:28;;;;;;;9.23;1.58;;;;;;;;;;5085528;28;20056;-59
2024/04/05 08:58:01;;;;;;;12.57;2.13;;;;;;;;;;5088212;28;20479;-58
2024/04/05 09:00:28;;;;;;;15.43;2.05;;;;;;;;;;5087644;28;20035;-59
2024/04/05 09:02:57;;;;;;;9.27;1.67;;;;;;;;;;5087599;28;20499;-58
2024/04/05 09:05:24;;;;;;;9.00;1.88;;;;;;;;;;5089496;28;20036;-59
2024/04/05 09:07:50;;;;;;;6.53;1.20;;;;;;;;;;5090090;28;22352;-59
2024/04/05 09:10:19;;;;;;;10.18;1.63;;;;;;;;;;5089083;28;20054;-58
2024/04/05 09:12:52;;;;;;;9.35;1.52;;;;;;;;;;5089009;28;20033;-59
2024/04/05 09:15:28;;;;;;;5.83;1.30;;;;;;;;;;5090212;28;20028;-58
2024/04/05 09:17:54;;;;;;;4.95;1.17;;;;;;;;;;5084339;28;20367;-59
2024/04/05 09:20:24;;;;;;;7.88;1.13;;;;;;;;;;5093314;28;20024;-58
2024/04/05 09:22:50;;;;;;;6.20;1.25;;;;;;;;;;5089649;28;20103;-58
2024/04/05 09:25:17;;;;;;;5.07;1.13;;;;;;;;;;5093035;28;20051;-58
2024/04/05 09:27:43;;;;;;;10.05;1.40;;;;;;;;;;5088668;28;20024;-57
2024/04/05 09:30:09;;;;;;;6.20;1.30;;;;;;;;;;5093604;28;20085;-60
2024/04/05 09:32:36;;;;;;;7.38;1.30;;;;;;;;;;5093354;28;20024;-58
2024/04/05 09:35:03;;;;;;;12.15;2.05;;;;;;;;;;5087803;28;20476;-58
2024/04/05 09:37:29;;;;;;;6.05;1.88;;;;;;;;;;5089898;28;20062;-58
2024/04/05 09:39:55;;;;;;;6.93;1.20;;;;;;;;;;5088688;28;20503;-62
2024/04/05 09:42:22;;;;;;;9.75;2.03;;;;;;;;;;5090146;28;20036;-62
2024/04/05 09:44:50;;;;;;;7.95;1.45;;;;;;;;;;5084105;28;20028;-62
2024/04/05 09:47:18;;;;;;;7.60;1.27;;;;;;;;;;5087665;28;20084;-61
2024/04/05 09:49:44;;;;;;;6.93;1.45;;;;;;;;;;5083337;28;20088;-62
2024/04/05 09:52:12;;;;;;;5.65;1.27;;;;;;;;;;5088869;28;20535;-61
2024/04/05 09:54:39;;;;;;;10.45;1.42;;;;;;;;;;5090730;28;20114;-62
2024/04/05 09:57:07;;;;;;;7.38;1.50;;;;;;;;;;5091354;28;20098;-61
2024/04/05 09:59:33;;;;;;;7.10;1.27;;;;;;;;;;5086399;28;20115;-62
2024/04/05 10:01:59;;;;;;;6.63;1.25;;;;;;;;;;5086252;28;20032;-61
2024/04/05 10:04:25;;;;;;;5.88;1.35;;;;;;;;;;5094753;28;20032;-62
2024/04/05 10:06:51;;;;;;;5.88;1.17;;;;;;;;;;5077051;28;20056;-59
2024/04/05 10:09:19;;;;;;;5.70;1.40;;;;;;;;;;5093479;28;20081;-63
2024/04/05 10:11:45;;;;;;;5.65;0.90;;;;;;;;;;5092457;28;20020;-63
2024/04/05 10:14:20;;;;;;;9.30;1.60;;;;;;;;;;5093109;28;20020;-63
2024/04/05 10:16:46;;;;;;;6.80;1.17;;;;;;;;;;5089630;28;20097;-63
2024/04/05 10:19:12;;;;;;;9.20;1.20;;;;;;;;;;5093808;28;20488;-63
2024/04/05 10:21:38;;;;;;;6.65;1.17;;;;;;;;;;5076510;28;20028;-62
2024/04/05 10:24:06;;;;;;;3.35;1.20;;;;;;;;;;5092874;28;20045;-63
2024/04/05 10:26:33;;;;;;;4.60;1.17;;;;;;;;;;5089649;28;20036;-63
2024/04/05 10:29:06;;;;;;;6.22;1.73;;;;;;;;;;5090472;28;20369;-63
2024/04/05 10:31:32;;;;;;;6.55;1.73;;;;;;;;;;5088945;28;20031;-63
2024/04/05 10:34:00;;;;;;;5.68;1.13;;;;;;;;;;5091832;28;20036;-63
2024/04/05 10:36:27;;;;;;;8.43;1.45;;;;;;;;;;5089212;28;20139;-63
2024/04/05 10:38:53;;;;;;;8.30;1.50;;;;;;;;;;5095902;28;20027;-63
2024/04/05 10:41:20;;;;;;;3.92;0.90;;;;;;;;;;5094083;28;20476;-62
2024/04/05 10:43:46;;;;;;;7.82;1.38;;;;;;;;;;5088472;28;20665;-65
2024/04/05 10:46:14;;;;;;;7.22;1.10;;;;;;;;;;5088124;28;20475;-63
2024/04/05 10:48:40;;;;;;;8.02;1.85;;;;;;;;;;5088802;28;20545;-61
2024/04/05 10:51:07;;;;;;;4.25;1.23;;;;;;;;;;5084437;28;20017;-60
2024/04/05 10:53:33;;;;;;;4.50;1.10;;;;;;;;;;5084427;28;20144;-61
2024/04/05 10:56:01;;;;;;;5.60;1.27;;;;;;;;;;5091259;28;20032;-61
2024/04/05 10:58:27;;;;;;;10.57;1.30;;;;;;;;;;5087693;28;20890;-60
2024/04/05 11:00:53;;;;;;;10.93;1.75;;;;;;;;;;5086294;28;20038;-61
2024/04/05 11:03:20;;;;;;;6.85;1.33;;;;;;;;;;5091337;28;20164;-61
2024/04/05 11:05:46;;;;;;;3.90;1.10;;;;;;;;;;5085771;28;20021;-61
2024/04/05 11:08:17;;;;;;;5.25;1.30;;;;;;;;;;5078022;28;20059;-61
2024/04/05 11:10:43;;;;;;;6.95;1.55;;;;;;;;;;5084847;28;20401;-61
2024/04/05 11:13:17;;;;;;;7.40;1.60;;;;;;;;;;5104366;28;20031;-61
2024/04/05 11:15:43;;;;;;;4.68;1.20;;;;;;;;;;5084279;28;20028;-62
2024/04/05 11:18:09;;;;;;;8.52;1.45;;;;;;;;;;5083038;28;20484;-62
2024/04/05 11:20:39;;;;;;;6.25;1.15;;;;;;;;;;5091178;28;20438;-61
2024/04/05 11:23:06;;;;;;;6.72;1.30;;;;;;;;;;5090052;28;20160;-60
2024/04/05 11:25:32;;;;;;;4.85;1.20;;;;;;;;;;5087789;28;20068;-61
2024/04/05 11:27:58;;;;;;;6.15;1.20;;;;;;;;;;5078753;28;20403;-61
2024/04/05 11:30:25;;;;;;;3.17;0.95;;;;;;;;;;5099466;27;20544;-60
2024/04/05 11:32:51;;;;;;;6.82;1.25;;;;;;;;;;5090222;28;20540;-60
2024/04/05 11:35:17;;;;;;;5.72;1.00;;;;;;;;;;5085549;28;20028;-60
2024/04/05 11:37:43;;;;;;;7.28;1.40;;;;;;;;;;5092012;28;20102;-60
2024/04/05 11:40:10;;;;;;;4.10;1.13;;;;;;;;;;5090670;28;20078;-60
2024/04/05 11:42:39;;;;;;;4.40;1.10;;;;;;;;;;5090670;28;20495;-60
2024/04/05 11:45:06;;;;;;;4.80;1.10;;;;;;;;;;5092138;28;20487;-60
2024/04/05 11:47:35;;;;;;;5.78;1.05;;;;;;;;;;5087051;28;20059;-60
2024/04/05 11:50:02;;;;;;;4.45;0.85;;;;;;;;;;5091131;28;20038;-60
2024/04/05 11:52:28;;;;;;;7.78;1.40;;;;;;;;;;5078145;28;20432;-61
2024/04/05 11:54:54;;;;;;;7.07;1.30;;;;;;;;;;5091567;28;20387;-60
2024/04/05 11:57:20;;;;;;;7.30;1.48;;;;;;;;;;5091828;28;20024;-60
2024/04/05 11:59:46;;;;;;;7.57;1.20;;;;;;;;;;5089275;28;20708;-58
2024/04/05 12:02:12;;;;;;;7.15;1.38;;;;;;;;;;5087726;28;20040;-58
2024/04/05 12:04:38;;;;;;;2.58;0.90;;;;;;;;;;5091391;28;20545;-58
2024/04/05 12:07:05;;;;;;;1.13;0.60;;;;;;;;;;5090587;28;20388;-58
2024/04/05 12:09:31;;;;;;;6.05;1.63;;;;;;;;;;5083259;28;20025;-59
2024/04/05 12:11:57;;;;;;;3.83;1.10;;;;;;;;;;5084628;28;20025;-58
2024/04/05 12:14:23;;;;;;;3.50;0.90;;;;;;;;;;5091210;28;20020;-58
2024/04/05 12:16:49;;;;;;;4.32;1.08;;;;;;;;;;5088841;28;20085;-59
2024/04/05 12:19:15;;;;;;;3.22;0.95;;;;;;;;;;5089229;28;20036;-58
2024/04/05 12:21:41;;;;;;;6.15;1.27;;;;;;;;;;5088125;28;20020;-57
2024/04/05 12:24:07;;;;;;;5.93;1.27;;;;;;;;;;5090182;28;20048;-60
2024/04/05 12:26:33;;;;;;;4.25;0.80;;;;;;;;;;5084508;28;20081;-58
2024/04/05 12:28:59;;;;;;;7.53;1.10;;;;;;;;;;5090612;28;20039;-58
2024/04/05 12:31:26;;;;;;;5.93;0.88;;;;;;;;;;5101377;27;20074;-57
2024/04/05 12:33:52;;;;;;;4.75;1.02;;;;;;;;;;5090330;28;20428;-58
2024/04/05 12:36:19;;;;;;;5.88;1.00;;;;;;;;;;5088708;28;20032;-57
2024/04/05 12:38:46;;;;;;;7.88;1.13;;;;;;;;;;5087563;28;20380;-57
2024/04/05 12:41:12;;;;;;;4.32;0.73;;;;;;;;;;5090603;28;20544;-59
2024/04/05 12:43:38;;;;;;;10.00;1.25;;;;;;;;;;5078534;28;20032;-58
2024/04/05 12:46:05;;;;;;;4.53;0.90;;;;;;;;;;5090313;28;20127;-58
2024/04/05 12:48:31;;;;;;;4.43;1.17;;;;;;;;;;5085551;28;20119;-59
2024/04/05 12:50:58;;;;;;;4.93;1.00;;;;;;;;;;5091007;28;20072;-58
2024/04/05 12:53:25;;;;;;;5.00;0.90;;;;;;;;;;5087078;28;20044;-57
2024/04/05 12:55:55;;;;;;;2.75;0.90;;;;;;;;;;5089011;28;20106;-58
2024/04/05 12:58:29;;;;;;;4.30;1.23;;;;;;;;;;5089649;28;20048;-57
2024/04/05 13:00:55;;;;;;;4.25;0.90;;;;;;;;;;5090759;28;20103;-57
2024/04/05 13:03:21;;;;;;;7.05;0.88;;;;;;;;;;5090475;28;20071;-58
2024/04/05 13:05:47;;;;;;;4.05;0.95;;;;;;;;;;5084966;28;20135;-58
2024/04/05 13:08:13;;;;;;;5.78;1.48;;;;;;;;;;5085587;28;20073;-62
2024/04/05 13:10:39;;;;;;;9.07;1.15;;;;;;;;;;5091664;28;20494;-62
2024/04/05 13:13:05;;;;;;;2.53;0.98;;;;;;;;;;5086753;28;20025;-62
2024/04/05 13:15:39;;;;;;;3.78;0.95;;;;;;;;;;5090635;28;20376;-62
2024/04/05 13:18:06;;;;;;;5.63;1.00;;;;;;;;;;5089954;28;20070;-61
2024/04/05 13:20:32;;;;;;;5.40;1.13;;;;;;;;;;5087211;28;20032;-61
2024/04/05 13:22:59;;;;;;;4.65;1.08;;;;;;;;;;5090161;28;20036;-61
2024/04/05 13:25:26;;;;;;;6.80;1.02;;;;;;;;;;5090760;28;20467;-61
2024/04/05 13:27:52;;;;;;;3.90;1.05;;;;;;;;;;5089708;28;20027;-61
2024/04/05 13:30:18;;;;;;;6.07;1.08;;;;;;;;;;5087447;28;20019;-61
2024/04/05 13:32:44;;;;;;;6.25;1.27;;;;;;;;;;5089900;28;20420;-60
2024/04/05 13:35:10;;;;;;;3.38;1.25;;;;;;;;;;5082944;28;20028;-62
2024/04/05 13:37:36;;;;;;;4.43;1.30;;;;;;;;;;5089105;28;20499;-61
2024/04/05 13:40:05;;;;;;;4.43;1.30;;;;;;;;;;5090032;28;20083;-61
2024/04/05 13:42:31;;;;;;;2.95;1.17;;;;;;;;;;5090473;28;20032;-62
2024/04/05 13:44:57;;;;;;;8.40;1.42;;;;;;;;;;5086187;28;20043;-60
2024/04/05 13:47:24;;;;;;;5.45;1.30;;;;;;;;;;5086076;28;20047;-61
2024/04/05 13:49:50;;;;;;;4.20;1.15;;;;;;;;;;5086014;28;20101;-60
2024/04/05 13:52:16;;;;;;;4.68;1.35;;;;;;;;;;5085156;28;20056;-61
2024/04/05 13:54:42;;;;;;;4.85;1.10;;;;;;;;;;5089719;28;20549;-61
2024/04/05 13:57:08;;;;;;;3.17;1.05;;;;;;;;;;5086267;28;20608;-61
2024/04/05 13:59:34;;;;;;;5.47;1.05;;;;;;;;;;5081053;28;20028;-61
2024/04/05 14:02:00;;;;;;;6.32;1.52;;;;;;;;;;5082485;28;20043;-61
2024/04/05 14:04:26;;;;;;;5.43;1.50;;;;;;;;;;5083244;28;20103;-61
2024/04/05 14:06:52;;;;;;;7.13;1.33;;;;;;;;;;5092108;28;20036;-61
2024/04/05 14:09:19;;;;;;;7.32;1.13;;;;;;;;;;5092511;28;20103;-61
2024/04/05 14:11:45;;;;;;;3.22;1.15;;;;;;;;;;5091536;28;20035;-61
2024/04/05 14:14:11;;;;;;;7.28;1.20;;;;;;;;;;5089487;28;20085;-62
2024/04/05 14:16:37;;;;;;;1.75;0.95;;;;;;;;;;5087617;28;20107;-62
2024/04/05 14:19:05;;;;;;;8.18;1.13;;;;;;;;;;5084693;28;20401;-57
2024/04/05 14:21:32;;;;;;;4.63;0.90;;;;;;;;;;5087368;28;20360;-58
2024/04/05 14:23:58;;;;;;;6.55;1.20;;;;;;;;;;5087537;28;20102;-58
2024/04/05 14:26:24;;;;;;;5.82;1.10;;;;;;;;;;5084782;28;20032;-58
2024/04/05 14:28:50;;;;;;;5.70;1.00;;;;;;;;;;5092984;28;20016;-58
2024/04/05 14:31:16;;;;;;;2.90;1.10;;;;;;;;;;5093302;28;20077;-58
2024/04/05 14:33:46;;;;;;;7.32;1.25;;;;;;;;;;5090662;28;20969;-58
2024/04/05 14:36:12;;;;;;;8.15;1.08;;;;;;;;;;5083110;28;20031;-59